This is the latest recevied weather packets stored in our database for station/object IZ3TCG-13. If no packets are shown the sender has not sent any weather packets the latest 10 day(s).
| Time | Temp. | Humidity | Pressure | Rain* | Wind** | Luminosity | Snow |
|---|---|---|---|---|---|---|---|
| 1778094724 | 16.67° C | 95% | 1012.1 hPa | 0 mm | - | - | - |
| 1778094009 | 17.22° C | 95% | 1012 hPa | 0 mm | - | - | - |
| 1778089684 | 17.22° C | 92% | 1011.4 hPa | 0 mm | - | - | - |
| 1778089444 | 17.22° C | 92% | 1011.2 hPa | 0 mm | - | - | - |
| 1778088724 | 17.78° C | 91% | 1011.3 hPa | 0 mm | - | - | - |
| 1778088003 | 17.78° C | 91% | 1011.6 hPa | 0 mm | - | - | - |
| 1778087044 | 17.78° C | 91% | 1011.1 hPa | 0 mm | - | - | - |
| 1778083817 | 17.78° C | 88% | 1011.5 hPa | 0 mm | - | - | - |
| 1778082724 | 18.89° C | 87% | 1011.6 hPa | 0 mm | - | - | - |
| 1778080324 | 17.78° C | 92% | 1011.3 hPa | 0 mm | - | - | - |
| 1778078644 | 17.78° C | 88% | 1011.4 hPa | 0 mm | - | - | - |
| 1778075523 | 16.67° C | 99% | 1011.5 hPa | 4.57 mm | - | - | - |
| 1778075044 | 17.22° C | 99% | 1011.3 hPa | 6.1 mm | - | - | - |
| 1778074324 | 17.22° C | 99% | 1011.8 hPa | 6.35 mm | - | - | - |
| 1778074084 | 16.67° C | 99% | 1011.7 hPa | 6.35 mm | - | - | - |
| 1778072643 | 16.67° C | 98% | 1012.1 hPa | 5.33 mm | - | - | - |
| 1778071683 | 17.22° C | 96% | 1012.1 hPa | 0.51 mm | - | - | - |
| 1778069043 | 17.78° C | 93% | 1012.2 hPa | 0 mm | - | - | - |
| 1778068324 | 17.78° C | 91% | 1012.3 hPa | 0 mm | - | - | - |
| 1778062564 | 16.11° C | 95% | 1013.1 hPa | 0.51 mm | - | - | - |
| 1778060884 | 16.11° C | 98% | 1009.4 hPa | 1.27 mm | - | - | - |
| 1778060404 | 16.11° C | 98% | 1009.6 hPa | 1.27 mm | - | - | - |
| 1778060163 | 16.11° C | 97% | 1009.5 hPa | 1.27 mm | - | - | - |
| 1778058484 | 16.67° C | 93% | 1009.7 hPa | 0 mm | - | - | - |
| 1778057284 | 17.22° C | 90% | 1009.2 hPa | 0 mm | - | - | - |
* Rain latest hour (hover to see other rain measurements)
** Current wind speed in m/s (hover to see current wind gust speed)